Time;durP1;ratioP1;P1;durP2;ratioP2;P2;SDS_P1;SDS_P2;PMS_P1;PMS_P2;Temp;Humidity;BMP_temperature;BMP_pressure;BME280_temperature;BME280_humidity;BME280_pressure;Samples;Min_cycle;Max_cycle;Signal;HPM_P1;HPM_P2
2022/06/08 00:00:28;;;;;;;1.33;0.70;;;25.00;53.30;;;;;;5042574;28;20025;-47
2022/06/08 00:03:06;;;;;;;0.95;0.60;;;25.00;53.40;;;;;;5044333;28;20096;-45
2022/06/08 00:05:32;;;;;;;2.55;0.60;;;25.00;53.30;;;;;;5043122;28;20024;-46
2022/06/08 00:07:58;;;;;;;2.50;0.70;;;25.00;53.30;;;;;;5044464;28;20109;-45
2022/06/08 00:10:23;;;;;;;1.45;0.52;;;25.00;53.10;;;;;;5044925;28;20024;-46
2022/06/08 00:12:49;;;;;;;2.00;0.60;;;25.00;53.10;;;;;;5044174;28;20025;-46
2022/06/08 00:15:15;;;;;;;1.00;0.50;;;25.00;53.00;;;;;;5043861;28;20112;-46
2022/06/08 00:17:41;;;;;;;1.92;0.93;;;25.00;53.10;;;;;;5043694;28;20029;-46
2022/06/08 00:20:08;;;;;;;1.55;0.63;;;25.00;53.00;;;;;;5044103;28;20431;-46
2022/06/08 00:22:34;;;;;;;1.00;0.50;;;25.00;53.00;;;;;;5044569;28;20112;-46
2022/06/08 00:25:00;;;;;;;1.15;0.57;;;25.00;53.50;;;;;;5042901;28;20108;-46
2022/06/08 00:27:26;;;;;;;1.15;0.50;;;25.00;52.90;;;;;;5043631;28;20032;-45
2022/06/08 00:29:52;;;;;;;2.15;0.50;;;25.00;52.80;;;;;;5042823;28;20063;-47
2022/06/08 00:32:18;;;;;;;0.88;0.40;;;25.00;52.70;;;;;;5042454;28;20429;-46
2022/06/08 00:34:44;;;;;;;1.45;0.60;;;25.00;52.70;;;;;;5042871;28;20115;-47
2022/06/08 00:37:10;;;;;;;1.70;0.60;;;25.10;52.80;;;;;;5043737;28;20493;-46
2022/06/08 00:39:35;;;;;;;1.27;0.55;;;25.10;52.70;;;;;;5043786;28;20057;-46
2022/06/08 00:42:06;;;;;;;2.03;0.63;;;25.10;52.70;;;;;;5044290;28;20052;-45
2022/06/08 00:44:38;;;;;;;0.77;0.43;;;25.10;52.80;;;;;;5044183;28;20025;-47
2022/06/08 00:47:07;;;;;;;1.20;0.60;;;25.10;52.80;;;;;;5042072;28;20505;-46
2022/06/08 00:49:40;;;;;;;0.90;0.45;;;25.10;52.70;;;;;;5043804;28;20052;-46
2022/06/08 00:52:06;;;;;;;1.08;0.50;;;25.10;52.60;;;;;;5043680;28;20037;-46
2022/06/08 00:54:37;;;;;;;2.22;0.60;;;25.10;52.70;;;;;;5040872;28;20025;-45
2022/06/08 00:57:18;;;;;;;1.23;0.43;;;25.10;52.60;;;;;;5043602;28;20025;-46
2022/06/08 00:59:48;;;;;;;2.25;0.52;;;25.10;52.60;;;;;;5041465;28;20102;-46
2022/06/08 01:02:14;;;;;;;1.67;0.60;;;25.10;52.60;;;;;;5043390;28;20428;-46
2022/06/08 01:04:40;;;;;;;0.90;0.50;;;25.10;52.40;;;;;;5040986;28;20032;-46
2022/06/08 01:07:06;;;;;;;0.95;0.50;;;25.10;52.40;;;;;;5042330;28;20036;-45
2022/06/08 01:09:39;;;;;;;1.38;0.70;;;25.10;52.50;;;;;;5040964;28;20120;-47
2022/06/08 01:12:19;;;;;;;1.40;0.50;;;25.10;52.40;;;;;;5039809;28;20100;-46
2022/06/08 01:14:47;;;;;;;0.85;0.45;;;25.10;52.40;;;;;;5042138;28;20025;-46
2022/06/08 01:17:19;;;;;;;1.10;0.47;;;25.10;52.20;;;;;;5042263;28;20029;-47
2022/06/08 01:19:48;;;;;;;1.25;0.50;;;25.10;52.30;;;;;;5041306;28;20029;-46
2022/06/08 01:22:19;;;;;;;0.57;0.45;;;25.10;52.30;;;;;;5042624;28;20013;-45
2022/06/08 01:24:51;;;;;;;2.17;0.73;;;25.10;52.30;;;;;;5041465;28;20120;-46
2022/06/08 01:27:23;;;;;;;;;;;25.10;52.30;;;;;;5042444;28;20021;-46
2022/06/08 01:30:17;;;;;;;0.98;0.50;;;25.10;52.30;;;;;;5040973;28;19908;-46
2022/06/08 01:33:12;;;;;;;1.27;0.70;;;25.10;52.20;;;;;;5043432;28;20614;-46
2022/06/08 01:35:56;;;;;;;3.35;0.80;;;25.10;52.30;;;;;;5041584;28;20053;-44
2022/06/08 01:38:40;;;;;;;0.95;0.50;;;25.10;52.30;;;;;;5042103;28;20028;-46
2022/06/08 01:41:24;;;;;;;1.92;0.85;;;25.10;52.30;;;;;;5042286;28;20017;-46
2022/06/08 01:43:52;;;;;;;1.35;0.73;;;25.10;52.20;;;;;;5042106;28;20028;-46
2022/06/08 01:46:26;;;;;;;1.75;0.60;;;25.10;52.30;;;;;;5042605;28;20549;-46
2022/06/08 01:49:26;;;;;;;0.77;0.38;;;25.10;52.30;;;;;;5042150;28;20416;-46
2022/06/08 01:52:28;;;;;;;1.23;0.70;;;25.10;52.30;;;;;;5041787;28;20330;-44
2022/06/08 01:55:10;;;;;;;1.85;0.40;;;25.10;52.30;;;;;;5041437;28;20017;-46
2022/06/08 01:57:55;;;;;;;0.45;0.40;;;25.10;52.20;;;;;;5042246;28;20063;-46
2022/06/08 02:00:25;;;;;;;1.50;0.77;;;25.10;52.20;;;;;;5041641;28;20350;-46
2022/06/08 02:02:57;;;;;;;1.63;0.63;;;25.10;52.00;;;;;;5041325;28;20424;-46
2022/06/08 02:05:31;;;;;;;0.85;0.55;;;25.10;52.10;;;;;;5040994;28;20493;-46
2022/06/08 02:08:00;;;;;;;1.33;0.43;;;25.10;52.00;;;;;;5040911;28;20033;-45
2022/06/08 02:10:55;;;;;;;1.63;0.82;;;25.10;52.00;;;;;;5042438;28;21213;-46
2022/06/08 02:13:47;;;;;;;1.05;0.60;;;25.20;52.00;;;;;;5040979;28;20069;-46
2022/06/08 02:16:35;;;;;;;1.35;0.75;;;25.10;51.90;;;;;;5041714;28;20052;-47
2022/06/08 02:19:07;;;;;;;2.00;0.60;;;25.10;52.00;;;;;;5042235;28;20798;-47
2022/06/08 02:21:36;;;;;;;;;;;25.20;51.90;;;;;;5042589;28;20037;-46
2022/06/08 02:24:11;;;;;;;1.48;0.50;;;25.20;52.00;;;;;;5040906;28;19912;-47
2022/06/08 02:26:41;;;;;;;1.55;0.68;;;25.10;51.90;;;;;;5041433;28;20258;-46
2022/06/08 02:29:10;;;;;;;1.48;0.70;;;25.10;52.00;;;;;;5041800;28;20060;-47
2022/06/08 02:31:52;;;;;;;1.38;0.70;;;25.10;52.00;;;;;;5041118;28;20025;-46
2022/06/08 02:34:37;;;;;;;1.25;0.52;;;25.10;52.00;;;;;;5042198;28;20029;-46
2022/06/08 02:37:17;;;;;;;1.63;0.68;;;25.10;51.90;;;;;;5041563;28;20479;-46
2022/06/08 02:39:54;;;;;;;0.95;0.57;;;25.10;51.90;;;;;;5044552;28;20059;-46
2022/06/08 02:42:25;;;;;;;2.38;0.80;;;25.20;51.80;;;;;;5041961;28;20040;-45
2022/06/08 02:44:56;;;;;;;3.58;0.75;;;25.20;51.70;;;;;;5044716;28;20097;-46
2022/06/08 02:47:30;;;;;;;1.67;0.73;;;25.20;51.70;;;;;;5044633;28;20025;-47
2022/06/08 02:49:59;;;;;;;1.10;0.50;;;25.20;51.70;;;;;;5044792;28;20032;-46
2022/06/08 02:52:27;;;;;;;1.60;0.68;;;25.20;51.70;;;;;;5045668;28;20035;-47
2022/06/08 02:54:54;;;;;;;1.35;0.63;;;25.20;51.70;;;;;;5045879;28;20842;-47
2022/06/08 02:57:41;;;;;;;1.60;0.70;;;25.20;51.60;;;;;;5044053;28;20025;-46
2022/06/08 03:00:21;;;;;;;1.27;0.57;;;25.20;51.70;;;;;;5043942;28;20082;-46
2022/06/08 03:02:50;;;;;;;1.85;0.82;;;25.10;52.20;;;;;;5044510;28;20029;-46
2022/06/08 03:05:24;;;;;;;0.88;0.52;;;25.20;51.70;;;;;;5045419;28;20108;-46
2022/06/08 03:07:56;;;;;;;1.33;0.55;;;25.20;51.60;;;;;;5044120;28;20025;-47
2022/06/08 03:10:24;;;;;;;1.77;0.70;;;25.20;51.60;;;;;;5043519;28;20040;-46
2022/06/08 03:12:59;;;;;;;2.10;0.90;;;25.20;51.60;;;;;;5045395;28;20044;-46
2022/06/08 03:15:25;;;;;;;1.20;0.60;;;25.10;51.60;;;;;;5045460;28;20485;-46
2022/06/08 03:17:51;;;;;;;1.60;0.70;;;25.20;51.60;;;;;;5045330;28;20102;-46
2022/06/08 03:20:21;;;;;;;1.50;0.60;;;25.10;51.50;;;;;;5045346;28;20075;-47
2022/06/08 03:22:47;;;;;;;1.33;0.68;;;25.20;51.50;;;;;;5043822;28;20041;-47
2022/06/08 03:25:14;;;;;;;1.42;0.80;;;25.20;51.50;;;;;;5044502;28;20112;-46
2022/06/08 03:27:42;;;;;;;2.05;0.80;;;25.20;51.50;;;;;;5044591;28;20068;-47
2022/06/08 03:30:09;;;;;;;1.55;0.90;;;25.10;51.50;;;;;;5042470;28;20526;-46
2022/06/08 03:32:34;;;;;;;1.67;0.70;;;25.20;51.40;;;;;;5043596;28;20036;-45
2022/06/08 03:35:00;;;;;;;1.52;0.75;;;25.20;51.40;;;;;;5045360;28;20069;-46
2022/06/08 03:37:26;;;;;;;1.30;0.80;;;25.10;51.40;;;;;;5044212;28;20017;-45
2022/06/08 03:39:52;;;;;;;1.25;0.65;;;25.20;51.40;;;;;;5045069;28;20032;-47
2022/06/08 03:42:18;;;;;;;2.92;1.00;;;25.20;51.40;;;;;;5044748;28;20098;-47
2022/06/08 03:44:44;;;;;;;1.13;0.70;;;25.20;51.30;;;;;;5044801;28;20083;-47
2022/06/08 03:47:32;;;;;;;1.48;0.82;;;25.20;51.40;;;;;;5044753;28;20064;-47
2022/06/08 03:50:00;;;;;;;2.03;0.90;;;25.20;51.30;;;;;;5043381;28;20122;-46
2022/06/08 03:52:29;;;;;;;1.88;0.80;;;25.20;51.30;;;;;;5045029;28;20029;-46
2022/06/08 03:54:59;;;;;;;1.65;0.80;;;25.20;51.20;;;;;;5041679;28;20114;-46
2022/06/08 03:57:25;;;;;;;1.17;0.80;;;25.20;51.20;;;;;;5044473;28;20075;-46
2022/06/08 03:59:51;;;;;;;2.85;1.00;;;25.20;51.20;;;;;;5043643;28;20603;-46
2022/06/08 04:02:17;;;;;;;1.98;0.73;;;25.20;51.20;;;;;;5043459;28;20021;-47
2022/06/08 04:04:44;;;;;;;1.63;0.82;;;25.20;51.20;;;;;;5043610;28;20033;-46
2022/06/08 04:07:10;;;;;;;1.23;0.60;;;25.20;51.20;;;;;;5043453;28;20113;-44
2022/06/08 04:09:36;;;;;;;1.20;0.80;;;25.20;51.20;;;;;;5044146;28;20052;-47
2022/06/08 04:12:03;;;;;;;1.10;0.68;;;25.20;51.20;;;;;;5044200;28;20025;-46
2022/06/08 04:14:29;;;;;;;1.75;0.70;;;25.20;51.90;;;;;;5043930;28;20025;-47
2022/06/08 04:16:55;;;;;;;1.75;0.80;;;25.20;51.20;;;;;;5043918;28;20024;-47
2022/06/08 04:19:21;;;;;;;2.08;0.77;;;25.20;51.20;;;;;;5043765;28;20021;-46
2022/06/08 04:21:47;;;;;;;2.25;0.90;;;25.20;51.20;;;;;;5042188;28;20087;-46
2022/06/08 04:24:14;;;;;;;3.03;1.17;;;25.20;51.20;;;;;;5043317;28;20031;-47
2022/06/08 04:26:41;;;;;;;3.00;1.23;;;25.20;51.00;;;;;;5041860;28;20591;-46
2022/06/08 04:29:08;;;;;;;3.58;1.48;;;25.20;51.20;;;;;;5042704;28;20152;-47
2022/06/08 04:31:35;;;;;;;3.47;1.08;;;25.20;51.70;;;;;;5042810;28;20029;-46
2022/06/08 04:34:04;;;;;;;6.22;1.90;;;25.20;52.00;;;;;;5042116;28;20736;-46
2022/06/08 04:36:31;;;;;;;4.38;1.50;;;25.20;51.80;;;;;;5039515;28;20033;-46
2022/06/08 04:38:58;;;;;;;4.13;1.50;;;25.20;51.90;;;;;;5043148;28;20029;-47
2022/06/08 04:41:24;;;;;;;4.55;1.60;;;25.20;52.10;;;;;;5043496;28;20021;-46
2022/06/08 04:43:50;;;;;;;3.03;1.50;;;25.20;51.80;;;;;;5043553;28;20389;-46
2022/06/08 04:46:17;;;;;;;4.55;1.90;;;25.20;51.80;;;;;;5043578;28;20540;-47
2022/06/08 04:48:44;;;;;;;3.35;1.50;;;25.20;51.70;;;;;;5041791;28;20417;-46
2022/06/08 04:51:11;;;;;;;3.50;1.65;;;25.20;51.70;;;;;;5043434;28;20037;-46
2022/06/08 04:53:42;;;;;;;3.58;1.45;;;25.20;51.70;;;;;;5043582;28;20108;-48
2022/06/08 04:56:08;;;;;;;3.45;1.95;;;25.20;51.70;;;;;;5043435;28;20632;-46
2022/06/08 04:58:34;;;;;;;3.55;1.60;;;25.20;51.60;;;;;;5043362;28;20021;-47
2022/06/08 05:01:01;;;;;;;3.17;1.63;;;25.20;51.50;;;;;;5041965;28;20033;-45
2022/06/08 05:03:27;;;;;;;3.88;2.15;;;25.20;51.50;;;;;;5043253;28;20108;-47
2022/06/08 05:05:53;;;;;;;3.22;1.70;;;25.20;51.40;;;;;;5042469;28;20145;-48
2022/06/08 05:08:20;;;;;;;4.43;2.13;;;25.20;51.30;;;;;;5043257;28;20055;-46
2022/06/08 05:10:46;;;;;;;3.80;1.40;;;25.20;51.30;;;;;;5042426;28;20024;-46
2022/06/08 05:13:13;;;;;;;3.15;1.63;;;25.20;51.30;;;;;;5042579;28;20299;-47
2022/06/08 05:15:41;;;;;;;2.88;1.63;;;25.20;51.20;;;;;;5042978;28;20105;-46
2022/06/08 05:18:09;;;;;;;2.47;1.48;;;25.20;51.30;;;;;;5042246;28;20385;-46
2022/06/08 05:20:36;;;;;;;3.08;1.65;;;25.20;51.40;;;;;;5042803;28;20099;-47
2022/06/08 05:23:04;;;;;;;2.75;1.58;;;25.20;51.60;;;;;;5040337;28;20044;-46
2022/06/08 05:25:33;;;;;;;2.55;1.60;;;25.20;51.70;;;;;;5042649;28;20029;-47
2022/06/08 05:27:59;;;;;;;3.80;1.65;;;25.20;51.70;;;;;;5041814;28;20028;-47
2022/06/08 05:30:26;;;;;;;3.05;1.77;;;25.20;51.90;;;;;;5040884;28;20059;-45
2022/06/08 05:32:52;;;;;;;3.60;1.98;;;25.20;51.80;;;;;;5040774;28;20051;-46
2022/06/08 05:35:19;;;;;;;4.55;2.50;;;25.20;51.80;;;;;;5042598;28;20059;-45
2022/06/08 05:37:46;;;;;;;5.13;3.00;;;25.20;51.50;;;;;;5040990;28;20028;-47
2022/06/08 05:40:12;;;;;;;3.90;2.88;;;25.10;51.10;;;;;;5043141;28;20025;-49
2022/06/08 05:42:37;;;;;;;3.60;2.50;;;25.00;51.60;;;;;;5041616;28;20025;-47
2022/06/08 05:45:06;;;;;;;3.63;2.28;;;25.00;51.90;;;;;;5041192;28;20029;-47
2022/06/08 05:47:31;;;;;;;5.25;3.38;;;25.00;52.00;;;;;;5042139;28;20725;-48
2022/06/08 05:49:58;;;;;;;6.32;2.75;;;24.90;51.90;;;;;;5042738;28;20036;-48
2022/06/08 05:52:25;;;;;;;3.70;2.60;;;24.90;52.00;;;;;;5041020;28;20662;-48
2022/06/08 05:54:52;;;;;;;3.97;2.90;;;24.80;52.10;;;;;;5042679;28;20624;-45
2022/06/08 05:57:18;;;;;;;4.45;2.75;;;24.80;52.00;;;;;;5042010;28;20548;-46
2022/06/08 05:59:44;;;;;;;5.13;3.08;;;24.70;52.20;;;;;;5040796;28;20021;-47
2022/06/08 06:02:14;;;;;;;4.55;3.25;;;24.60;52.80;;;;;;5041326;28;20039;-47
2022/06/08 06:04:42;;;;;;;5.90;3.00;;;24.60;52.30;;;;;;5042606;28;20443;-47
2022/06/08 06:07:08;;;;;;;3.67;2.30;;;24.50;53.00;;;;;;5039402;28;20029;-47
2022/06/08 06:09:34;;;;;;;4.10;2.58;;;24.50;52.90;;;;;;5041479;28;20455;-47
2022/06/08 06:12:00;;;;;;;4.40;2.78;;;24.50;53.10;;;;;;5041155;28;20052;-48
2022/06/08 06:14:26;;;;;;;3.33;2.30;;;24.40;52.80;;;;;;5043374;28;20507;-48
2022/06/08 06:16:52;;;;;;;3.35;2.38;;;24.40;53.10;;;;;;5045523;28;20096;-45
2022/06/08 06:19:18;;;;;;;5.22;3.08;;;24.30;53.20;;;;;;5044566;28;20497;-47
2022/06/08 06:21:43;;;;;;;30.25;7.13;;;24.40;53.20;;;;;;5045097;28;20032;-47
2022/06/08 06:24:09;;;;;;;39.47;9.93;;;24.40;53.10;;;;;;5045273;28;20539;-47
2022/06/08 06:26:35;;;;;;;28.98;8.55;;;24.40;53.40;;;;;;5044319;28;20029;-46
2022/06/08 06:29:00;;;;;;;24.15;6.25;;;24.30;53.30;;;;;;5043567;28;20059;-45
2022/06/08 06:31:30;;;;;;;16.25;4.97;;;24.30;53.40;;;;;;5045095;28;20151;-47
2022/06/08 06:33:56;;;;;;;8.23;3.65;;;24.30;53.60;;;;;;5040376;28;20607;-47
2022/06/08 06:36:22;;;;;;;7.57;3.28;;;24.30;53.50;;;;;;5044548;28;20033;-47
2022/06/08 06:38:48;;;;;;;5.30;3.08;;;24.30;53.70;;;;;;5044513;28;20755;-47
2022/06/08 06:41:16;;;;;;;6.95;3.20;;;24.20;53.40;;;;;;5043181;28;20460;-47
2022/06/08 06:43:42;;;;;;;6.43;2.58;;;24.20;53.60;;;;;;5044448;28;20090;-48
2022/06/08 06:46:13;;;;;;;5.65;2.65;;;24.20;54.10;;;;;;5045213;28;20591;-47
2022/06/08 06:48:39;;;;;;;6.13;2.75;;;24.20;53.60;;;;;;5043434;28;20052;-48
2022/06/08 06:51:05;;;;;;;5.70;2.78;;;24.20;53.70;;;;;;5044364;28;20091;-47
2022/06/08 06:53:30;;;;;;;4.50;2.90;;;24.10;53.70;;;;;;5045365;28;20061;-48
2022/06/08 06:55:56;;;;;;;3.55;2.15;;;24.10;53.40;;;;;;5042953;28;20249;-46
2022/06/08 06:58:22;;;;;;;4.63;2.63;;;24.00;53.70;;;;;;5044486;28;20025;-47
2022/06/08 07:00:49;;;;;;;3.42;2.00;;;24.00;54.10;;;;;;5043177;28;20048;-47
2022/06/08 07:03:15;;;;;;;3.20;1.90;;;24.00;54.20;;;;;;5044274;28;20021;-47
2022/06/08 07:05:41;;;;;;;5.72;2.15;;;24.00;54.60;;;;;;5044504;28;20516;-47
2022/06/08 07:08:07;;;;;;;4.20;2.30;;;24.00;54.60;;;;;;5044351;28;20524;-48
2022/06/08 07:10:33;;;;;;;3.80;2.38;;;24.00;54.70;;;;;;5044608;28;20083;-46
2022/06/08 07:12:59;;;;;;;4.20;2.08;;;24.00;54.20;;;;;;5042601;28;20064;-46
2022/06/08 07:15:26;;;;;;;5.90;2.65;;;24.00;54.30;;;;;;5044336;28;20052;-46
2022/06/08 07:17:53;;;;;;;7.13;3.28;;;24.00;54.50;;;;;;5044424;28;20017;-48
2022/06/08 07:20:19;;;;;;;11.70;3.85;;;24.00;54.40;;;;;;5042496;28;20055;-48
2022/06/08 07:22:46;;;;;;;15.32;4.20;;;24.00;54.50;;;;;;5043950;28;20028;-48
2022/06/08 07:25:13;;;;;;;21.20;5.28;;;24.00;54.20;;;;;;5043444;28;20094;-48
2022/06/08 07:27:40;;;;;;;24.13;7.32;;;24.10;54.40;;;;;;5043559;28;20029;-46
2022/06/08 07:30:07;;;;;;;27.63;7.68;;;24.10;55.20;;;;;;5033634;28;20118;-48
2022/06/08 07:32:33;;;;;;;21.15;6.18;;;24.10;54.80;;;;;;5024706;28;20065;-48
2022/06/08 07:34:59;;;;;;;25.05;6.22;;;24.20;54.90;;;;;;5025017;28;20033;-47
2022/06/08 07:37:26;;;;;;;14.70;4.90;;;24.20;54.80;;;;;;5024763;28;20086;-47
2022/06/08 07:39:52;;;;;;;6.55;3.30;;;24.20;54.20;;;;;;5033095;28;20124;-48
2022/06/08 07:42:18;;;;;;;7.07;3.90;;;24.10;54.00;;;;;;5044284;28;20674;-48
2022/06/08 07:44:44;;;;;;;5.53;3.17;;;24.10;54.40;;;;;;5044935;28;20082;-48
2022/06/08 07:47:11;;;;;;;8.05;2.92;;;24.10;54.10;;;;;;5045155;28;20358;-49
2022/06/08 07:49:36;;;;;;;5.90;2.63;;;24.10;54.50;;;;;;5044100;28;20107;-48
2022/06/08 07:52:14;;;;;;;7.80;3.10;;;24.10;54.70;;;;;;5032651;28;20854;-49
2022/06/08 07:54:41;;;;;;;6.75;2.97;;;24.10;54.90;;;;;;5031813;28;20064;-47
2022/06/08 07:57:12;;;;;;;5.30;2.75;;;24.10;54.80;;;;;;5025106;28;20497;-48
2022/06/08 07:59:38;;;;;;;4.35;2.70;;;24.10;53.90;;;;;;5025115;28;20390;-48
2022/06/08 08:02:07;;;;;;;3.80;2.33;;;24.00;54.10;;;;;;5029066;28;20029;-47
2022/06/08 08:04:36;;;;;;;4.68;2.90;;;24.00;53.90;;;;;;5031669;28;20721;-47
2022/06/08 08:07:02;;;;;;;5.05;2.80;;;23.90;54.20;;;;;;5039193;28;20068;-48
2022/06/08 08:09:31;;;;;;;3.63;2.22;;;23.80;53.80;;;;;;5028657;28;20033;-46
2022/06/08 08:11:57;;;;;;;3.95;2.42;;;23.70;54.30;;;;;;5044043;28;20056;-47
2022/06/08 08:14:24;;;;;;;4.25;2.53;;;23.70;54.50;;;;;;5036163;28;20545;-47
2022/06/08 08:16:50;;;;;;;11.65;4.75;;;23.70;54.80;;;;;;5024588;28;20034;-47
2022/06/08 08:19:18;;;;;;;17.98;5.03;;;23.70;54.80;;;;;;5025801;28;20021;-47
2022/06/08 08:21:45;;;;;;;12.93;4.25;;;23.70;54.80;;;;;;5036389;28;20684;-46
2022/06/08 08:24:11;;;;;;;19.00;5.00;;;23.70;55.00;;;;;;5024497;28;20029;-48
2022/06/08 08:26:37;;;;;;;16.27;4.13;;;23.70;54.90;;;;;;5024537;28;20041;-47
2022/06/08 08:29:04;;;;;;;13.20;4.32;;;23.80;54.60;;;;;;5024007;28;20052;-44
2022/06/08 08:31:29;;;;;;;5.90;3.00;;;23.70;54.40;;;;;;5023927;28;20029;-47
2022/06/08 08:33:55;;;;;;;8.98;3.60;;;23.70;53.80;;;;;;5023839;28;20582;-47
2022/06/08 08:36:21;;;;;;;9.10;3.78;;;23.70;54.50;;;;;;5031802;28;20029;-48
2022/06/08 08:38:47;;;;;;;5.10;2.55;;;23.70;54.80;;;;;;5043484;28;20033;-47
2022/06/08 08:44:06;;;;;;;;;;;23.70;54.90;;;;;;5030867;28;20175;-46
2022/06/08 08:46:50;;;;;;;4.28;2.25;;;23.70;55.00;;;;;;5041846;28;20408;-46
2022/06/08 08:49:19;;;;;;;5.75;2.65;;;23.70;55.20;;;;;;5034528;28;20088;-47
2022/06/08 08:51:55;;;;;;;6.28;2.22;;;23.70;55.20;;;;;;5034590;28;20040;-48
2022/06/08 08:54:38;;;;;;;3.28;1.88;;;23.70;55.20;;;;;;5041153;28;20039;-47
2022/06/08 08:57:07;;;;;;;;;;;23.70;55.40;;;;;;5042553;28;20056;-47
2022/06/08 08:59:33;;;;;;;4.03;2.17;;;23.70;55.30;;;;;;5035116;28;20556;-47
2022/06/08 09:01:59;;;;;;;3.65;2.30;;;23.70;54.90;;;;;;5023711;28;20113;-47
2022/06/08 09:04:33;;;;;;;4.07;2.03;;;23.70;55.30;;;;;;5023007;28;20436;-47
2022/06/08 09:07:13;;;;;;;3.28;2.00;;;23.80;55.30;;;;;;5021755;28;20034;-48
2022/06/08 09:09:39;;;;;;;6.40;2.42;;;23.80;55.20;;;;;;5022804;28;20040;-48
2022/06/08 09:12:05;;;;;;;5.43;2.67;;;23.80;55.50;;;;;;5021681;28;20025;-48
2022/06/08 09:14:52;;;;;;;2.88;1.80;;;23.80;55.10;;;;;;5026717;28;20029;-47
2022/06/08 09:17:28;;;;;;;3.45;1.75;;;23.80;55.40;;;;;;5042291;28;20044;-48
2022/06/08 09:19:54;;;;;;;3.45;2.03;;;23.90;55.20;;;;;;5042913;28;20029;-47
2022/06/08 09:22:23;;;;;;;6.15;2.80;;;23.90;55.60;;;;;;5042070;28;20051;-47
2022/06/08 09:25:26;;;;;;;4.35;2.10;;;23.90;55.30;;;;;;5042168;28;20061;-47
2022/06/08 09:27:55;;;;;;;3.65;1.85;;;23.90;55.30;;;;;;5041174;28;20452;-47
2022/06/08 09:30:24;;;;;;;4.22;2.10;;;24.00;55.70;;;;;;5028413;28;20041;-47
2022/06/08 09:32:57;;;;;;;4.15;2.47;;;24.00;54.90;;;;;;5022668;28;20442;-48
2022/06/08 09:35:28;;;;;;;4.63;2.20;;;24.00;55.00;;;;;;5022544;28;20578;-47
2022/06/08 09:38:06;;;;;;;4.18;2.28;;;24.00;54.70;;;;;;5034465;28;20032;-47
2022/06/08 09:40:37;;;;;;;4.50;2.67;;;24.00;52.40;;;;;;5022278;28;20060;-46
2022/06/08 09:43:28;;;;;;;3.17;2.00;;;24.00;51.60;;;;;;5021051;28;20551;-47
2022/06/08 09:46:10;;;;;;;4.07;1.90;;;23.90;53.30;;;;;;5022731;28;20060;-48
2022/06/08 09:51:50;;;;;;;21.85;6.25;;;24.00;53.80;;;;;;5037679;28;20027;-48
2022/06/08 09:54:31;;;;;;;27.05;6.72;;;24.00;53.90;;;;;;5046127;28;20528;-46
2022/06/08 09:57:08;;;;;;;13.52;4.18;;;24.10;54.20;;;;;;5046524;28;20473;-47
2022/06/08 09:59:51;;;;;;;6.75;3.15;;;24.10;54.50;;;;;;5039425;28;20083;-49
2022/06/08 10:02:55;;;;;;;7.28;2.85;;;24.10;54.10;;;;;;5026684;28;20370;-46
2022/06/08 10:05:44;;;;;;;8.65;2.67;;;24.20;53.60;;;;;;5029840;28;20536;-47
2022/06/08 10:08:31;;;;;;;4.43;2.22;;;24.20;57.40;;;;;;5026795;28;20202;-47
2022/06/08 10:11:39;;;;;;;20.88;6.78;;;24.10;54.90;;;;;;5033341;28;20049;-48
2022/06/08 10:14:21;;;;;;;19.52;6.20;;;24.10;54.30;;;;;;5026166;28;20060;-47
2022/06/08 10:16:59;;;;;;;55.33;13.25;;;24.10;53.50;;;;;;5035833;28;20018;-45
2022/06/08 10:19:51;;;;;;;26.83;7.70;;;24.20;53.20;;;;;;5045650;28;20017;-45
2022/06/08 10:22:18;;;;;;;17.02;5.43;;;24.20;53.10;;;;;;5044820;28;20021;-45
2022/06/08 10:24:58;;;;;;;15.45;5.00;;;24.30;53.00;;;;;;5042912;28;20121;-47
2022/06/08 10:27:34;;;;;;;10.93;3.58;;;24.30;53.20;;;;;;5043953;28;20111;-44
2022/06/08 10:30:18;;;;;;;11.15;3.85;;;24.40;53.00;;;;;;5043625;28;20157;-47
2022/06/08 10:32:54;;;;;;;7.35;2.95;;;24.30;53.40;;;;;;5044580;28;20533;-47
2022/06/08 10:35:41;;;;;;;8.02;3.00;;;24.40;53.70;;;;;;5044577;28;20029;-48
2022/06/08 10:38:26;;;;;;;6.15;2.42;;;24.40;53.70;;;;;;5027225;28;20021;-48
2022/06/08 10:40:58;;;;;;;3.90;1.88;;;24.40;53.40;;;;;;5044431;28;20092;-45
2022/06/08 10:43:34;;;;;;;5.43;2.60;;;24.40;54.50;;;;;;5042432;28;20025;-48
2022/06/08 10:46:01;;;;;;;5.40;2.55;;;24.40;53.50;;;;;;5042289;28;20529;-46
2022/06/08 10:48:46;;;;;;;8.45;2.38;;;24.40;53.90;;;;;;5045262;28;20059;-48
2022/06/08 10:51:16;;;;;;;3.97;2.13;;;24.40;52.30;;;;;;5045105;28;20044;-47
2022/06/08 10:56:27;;;;;;;5.63;2.17;;;24.40;52.80;;;;;;5044278;28;20373;-46
2022/06/08 10:59:08;;;;;;;8.88;4.22;;;24.40;53.20;;;;;;5042643;28;20044;-48
2022/06/08 11:01:36;;;;;;;10.85;4.07;;;24.40;53.20;;;;;;5042320;28;20544;-46
2022/06/08 11:04:06;;;;;;;9.45;3.22;;;24.40;54.20;;;;;;5043136;28;20496;-46
2022/06/08 11:07:05;;;;;;;9.43;3.63;;;24.50;54.40;;;;;;5044097;28;20079;-47
2022/06/08 11:09:34;;;;;;;6.95;2.70;;;24.50;52.50;;;;;;5063316;28;20056;-46
2022/06/08 11:12:20;;;;;;;6.45;3.15;;;24.50;53.30;;;;;;5041753;28;20041;-48
2022/06/08 11:14:51;;;;;;;4.68;2.03;;;24.50;53.70;;;;;;5044575;28;20033;-48
2022/06/08 11:17:36;;;;;;;4.43;2.40;;;24.50;52.80;;;;;;5044575;28;20021;-46
2022/06/08 11:20:13;;;;;;;2.47;1.48;;;24.50;53.00;;;;;;5044259;28;20559;-46
2022/06/08 11:22:45;;;;;;;3.03;1.40;;;24.50;49.20;;;;;;5042675;28;20005;-45
2022/06/08 11:25:17;;;;;;;3.38;1.85;;;24.50;50.10;;;;;;5043766;28;20025;-47
2022/06/08 11:27:43;;;;;;;2.65;1.50;;;24.50;50.80;;;;;;5041810;28;20468;-46
2022/06/08 11:30:22;;;;;;;2.90;1.75;;;24.50;49.90;;;;;;5042269;28;20628;-48
2022/06/08 11:33:16;;;;;;;3.38;1.85;;;24.50;49.60;;;;;;5042731;28;20023;-45
2022/06/08 11:36:16;;;;;;;2.80;1.52;;;24.40;50.00;;;;;;5043702;28;20032;-46
2022/06/08 11:39:05;;;;;;;2.28;1.38;;;24.50;51.10;;;;;;5043797;28;20487;-45
2022/06/08 11:41:38;;;;;;;2.97;1.48;;;24.50;48.80;;;;;;5041718;28;20024;-46
2022/06/08 11:44:17;;;;;;;2.45;1.45;;;24.50;48.60;;;;;;5043890;28;20094;-46
2022/06/08 11:46:53;;;;;;;4.20;1.63;;;24.50;49.70;;;;;;5041639;28;20098;-44
2022/06/08 11:49:53;;;;;;;2.38;1.33;;;24.50;49.70;;;;;;5040224;28;20043;-46
2022/06/08 11:52:27;;;;;;;3.58;1.50;;;24.60;50.00;;;;;;5042203;28;20036;-45
2022/06/08 11:55:14;;;;;;;2.28;1.40;;;24.60;49.70;;;;;;5042593;28;20064;-45
2022/06/08 11:57:52;;;;;;;2.10;1.20;;;24.60;48.90;;;;;;5039721;28;20040;-46
2022/06/08 12:00:32;;;;;;;5.00;1.60;;;24.60;47.80;;;;;;5042464;28;20025;-46
2022/06/08 12:03:24;;;;;;;1.83;1.17;;;24.70;46.80;;;;;;5041831;28;20274;-47
2022/06/08 12:05:51;;;;;;;2.75;1.30;;;24.70;48.30;;;;;;5038551;28;20274;-45
2022/06/08 12:08:29;;;;;;;2.05;1.17;;;24.70;48.20;;;;;;5024823;28;20055;-45
2022/06/08 12:10:56;;;;;;;5.03;1.20;;;24.70;47.90;;;;;;5025708;28;20021;-47
2022/06/08 12:13:23;;;;;;;3.25;1.50;;;24.70;48.30;;;;;;5025824;28;20060;-45
2022/06/08 12:15:53;;;;;;;4.13;1.30;;;24.80;47.40;;;;;;5043900;28;20561;-46
2022/06/08 12:18:41;;;;;;;2.83;1.33;;;24.80;48.90;;;;;;5042827;28;20029;-47
2022/06/08 12:21:29;;;;;;;2.80;1.40;;;24.90;48.60;;;;;;5043100;28;20025;-44
2022/06/08 12:24:12;;;;;;;2.20;1.30;;;24.90;48.20;;;;;;5042255;28;20267;-46
2022/06/08 12:26:52;;;;;;;2.08;1.35;;;24.90;46.70;;;;;;5041690;28;20908;-46
2022/06/08 12:29:22;;;;;;;2.97;1.20;;;24.90;46.60;;;;;;5036719;28;20037;-46
2022/06/08 12:32:07;;;;;;;3.05;1.70;;;24.90;47.70;;;;;;5024410;28;20592;-47
2022/06/08 12:34:37;;;;;;;3.50;2.08;;;24.90;48.20;;;;;;5024037;28;20029;-45
2022/06/08 12:37:21;;;;;;;2.20;1.40;;;24.90;48.30;;;;;;5038745;28;20021;-46
2022/06/08 12:39:48;;;;;;;3.72;1.50;;;25.00;48.00;;;;;;5041830;28;20013;-47
2022/06/08 12:42:33;;;;;;;2.50;1.50;;;25.00;47.80;;;;;;5042838;28;20603;-47
2022/06/08 12:45:01;;;;;;;3.65;2.85;;;25.00;48.00;;;;;;5041205;28;20649;-48
2022/06/08 12:47:38;;;;;;;4.55;3.47;;;25.00;48.70;;;;;;5042070;28;20021;-47
2022/06/08 12:50:14;;;;;;;4.95;3.33;;;25.10;48.90;;;;;;5041094;28;20453;-46
2022/06/08 12:52:41;;;;;;;4.65;3.35;;;25.10;49.00;;;;;;5042061;28;20120;-47
2022/06/08 12:55:15;;;;;;;4.25;3.10;;;25.20;49.60;;;;;;5042506;28;20045;-47
2022/06/08 12:57:44;;;;;;;3.83;2.60;;;25.20;49.50;;;;;;5041527;28;20032;-45
2022/06/08 13:00:31;;;;;;;4.25;2.15;;;25.20;49.50;;;;;;5027310;28;20075;-47
2022/06/08 13:03:00;;;;;;;3.80;2.22;;;25.30;49.50;;;;;;5022123;28;20033;-47
2022/06/08 13:05:29;;;;;;;3.55;1.63;;;25.30;49.50;;;;;;5022687;28;20037;-46
2022/06/08 13:07:56;;;;;;;3.75;1.90;;;25.30;49.40;;;;;;5033695;28;20079;-47
2022/06/08 13:10:24;;;;;;;2.60;1.50;;;25.40;49.40;;;;;;5023241;28;20559;-46
2022/06/08 13:12:54;;;;;;;3.67;1.70;;;25.40;49.30;;;;;;5023599;28;20045;-43
2022/06/08 13:15:24;;;;;;;3.80;1.70;;;25.40;49.40;;;;;;5022091;28;20034;-47
2022/06/08 13:17:50;;;;;;;2.88;1.80;;;25.40;49.20;;;;;;5023742;28;20308;-48
2022/06/08 13:20:17;;;;;;;3.10;1.63;;;25.50;49.20;;;;;;5022785;28;20026;-45